createdAt,value
2023-11-22T00:02:07.398Z,35.50
2023-11-22T00:04:34.874Z,35.80
2023-11-22T00:07:02.859Z,40.90
2023-11-22T00:09:30.318Z,38.80
2023-11-22T00:11:57.850Z,34.00
2023-11-22T00:14:25.318Z,38.40
2023-11-22T00:16:53.081Z,41.90
2023-11-22T00:19:23.424Z,34.60
2023-11-22T00:21:51.020Z,28.30
2023-11-22T00:24:19.759Z,31.20
2023-11-22T00:26:47.230Z,34.60
2023-11-22T00:29:14.758Z,35.30
2023-11-22T00:31:42.357Z,34.50
2023-11-22T00:34:09.829Z,32.60
2023-11-22T00:36:37.405Z,33.80
2023-11-22T00:39:05.147Z,37.90
2023-11-22T00:41:33.073Z,38.30
2023-11-22T00:44:00.765Z,39.70
2023-11-22T00:46:28.385Z,39.40
2023-11-22T00:48:57.433Z,30.60
2023-11-22T00:51:25.375Z,33.30
2023-11-22T00:53:54.098Z,32.60
2023-11-22T00:56:21.646Z,37.30
2023-11-22T00:58:51.119Z,33.00
2023-11-22T01:01:19.480Z,26.30
2023-11-22T01:03:48.041Z,27.10
2023-11-22T01:06:15.956Z,31.50
2023-11-22T01:08:43.430Z,38.30
2023-11-22T01:11:11.016Z,28.30
2023-11-22T01:13:42.144Z,29.00
2023-11-22T01:16:10.986Z,36.60
2023-11-22T01:18:39.957Z,33.90
2023-11-22T01:21:07.876Z,32.20
2023-11-22T01:23:35.491Z,34.30
2023-11-22T01:26:04.296Z,32.30
2023-11-22T01:28:35.334Z,30.20
2023-11-22T01:31:03.943Z,34.70
2023-11-22T01:33:33.502Z,32.40
2023-11-22T01:36:00.986Z,37.60
2023-11-22T01:38:28.525Z,38.60
2023-11-22T01:40:56.527Z,37.20
2023-11-22T01:43:25.440Z,28.90
2023-11-22T01:45:53.190Z,27.90
2023-11-22T01:48:20.744Z,30.40
2023-11-22T01:50:48.388Z,30.60
2023-11-22T01:53:17.558Z,35.80
2023-11-22T01:55:45.389Z,26.00
2023-11-22T01:58:13.072Z,28.40
2023-11-22T02:00:53.138Z,28.10
2023-11-22T02:03:22.284Z,29.00
2023-11-22T02:05:50.621Z,34.50
2023-11-22T02:08:20.000Z,33.00
2023-11-22T02:10:50.629Z,23.40
2023-11-22T02:13:18.144Z,35.50
2023-11-22T02:15:47.746Z,27.90
2023-11-22T02:18:15.292Z,37.70
2023-11-22T02:20:43.638Z,31.30
2023-11-22T02:23:12.705Z,29.30
2023-11-22T02:25:40.368Z,34.40
2023-11-22T02:28:09.974Z,30.90
2023-11-22T02:30:37.850Z,26.10
2023-11-22T02:33:08.244Z,27.00
2023-11-22T02:35:35.830Z,28.70
2023-11-22T02:38:04.745Z,28.50
2023-11-22T02:40:32.268Z,35.20
2023-11-22T02:43:02.088Z,28.70
2023-11-22T02:45:29.894Z,26.10
2023-11-22T02:47:57.471Z,24.30
2023-11-22T02:50:24.971Z,28.00
2023-11-22T02:52:52.433Z,25.20
2023-11-22T02:55:20.873Z,20.80
2023-11-22T02:57:48.370Z,33.30
2023-11-22T03:00:16.380Z,34.70
2023-11-22T03:02:43.989Z,40.30
2023-11-22T03:05:12.107Z,24.80
2023-11-22T03:07:42.381Z,34.20
2023-11-22T03:10:10.182Z,24.50
2023-11-22T03:12:38.716Z,34.50
2023-11-22T03:15:07.006Z,32.80
2023-11-22T03:17:34.805Z,24.60
2023-11-22T03:20:02.471Z,32.90
2023-11-22T03:22:32.793Z,29.80
2023-11-22T03:25:05.608Z,44.40
2023-11-22T03:27:33.175Z,25.10
2023-11-22T03:30:01.029Z,36.50
2023-11-22T03:32:29.688Z,30.40
2023-11-22T03:37:26.332Z,40.20
2023-11-22T03:39:54.354Z,30.20
2023-11-22T03:42:22.256Z,29.20
2023-11-22T03:44:49.742Z,34.50
2023-11-22T03:47:17.455Z,38.90
2023-11-22T03:49:47.512Z,31.30
2023-11-22T03:52:17.784Z,52.90
2023-11-22T03:54:45.252Z,38.10
2023-11-22T03:57:12.737Z,34.50
2023-11-22T03:59:41.888Z,45.20
2023-11-22T04:02:09.387Z,40.00
2023-11-22T04:04:38.832Z,31.80
2023-11-22T04:07:07.493Z,32.20
2023-11-22T04:09:35.055Z,30.40
2023-11-22T04:12:02.519Z,43.70
2023-11-22T04:14:30.681Z,37.60
2023-11-22T04:19:26.367Z,37.30
2023-11-22T04:21:55.540Z,33.60
2023-11-22T04:24:23.186Z,31.30
2023-11-22T04:26:50.670Z,35.20
2023-11-22T04:29:18.284Z,34.10
2023-11-22T04:31:45.844Z,42.70
2023-11-22T04:34:13.281Z,37.40
2023-11-22T04:36:40.716Z,35.70
2023-11-22T04:39:08.840Z,28.40
2023-11-22T04:41:36.607Z,35.00
2023-11-22T04:44:04.334Z,29.10
2023-11-22T04:46:31.974Z,23.90
2023-11-22T04:48:59.725Z,29.40
2023-11-22T04:51:27.783Z,34.30
2023-11-22T04:53:55.225Z,31.40
2023-11-22T04:56:22.696Z,24.70
2023-11-22T04:58:50.154Z,30.50
2023-11-22T05:01:20.773Z,19.30
2023-11-22T05:03:49.216Z,35.00
2023-11-22T05:06:17.841Z,36.40
2023-11-22T05:08:45.413Z,27.80
2023-11-22T05:11:13.051Z,25.60
2023-11-22T05:13:40.512Z,32.00
2023-11-22T05:16:08.612Z,31.20
2023-11-22T05:18:36.945Z,23.90
2023-11-22T05:21:07.320Z,17.10
2023-11-22T05:23:34.885Z,24.60
2023-11-22T05:26:02.453Z,15.00
2023-11-22T05:28:29.958Z,19.30
2023-11-22T05:30:57.429Z,20.10
2023-11-22T05:33:25.394Z,31.50
2023-11-22T05:35:52.997Z,36.00
2023-11-22T05:38:20.528Z,33.00
2023-11-22T05:40:47.994Z,26.80
2023-11-22T05:43:15.511Z,33.90
2023-11-22T05:45:43.104Z,34.40
2023-11-22T05:48:10.683Z,32.50
2023-11-22T05:50:38.322Z,32.00
2023-11-22T05:53:05.947Z,16.20
2023-11-22T05:55:33.424Z,17.60
2023-11-22T05:58:00.886Z,23.90
2023-11-22T06:00:28.360Z,30.00
2023-11-22T06:02:56.734Z,22.00
2023-11-22T06:05:24.423Z,24.40
2023-11-22T06:07:52.653Z,14.20
2023-11-22T06:10:20.192Z,17.40
2023-11-22T06:12:47.650Z,17.80
2023-11-22T06:15:15.124Z,16.40
2023-11-22T06:17:42.674Z,10.80
2023-11-22T06:20:10.735Z,15.40
2023-11-22T06:22:42.118Z,11.70
2023-11-22T06:25:13.337Z,11.50
2023-11-22T06:27:41.461Z,10.90
2023-11-22T06:30:10.544Z,9.20
2023-11-22T06:32:38.178Z,20.50
2023-11-22T06:35:08.509Z,26.70
2023-11-22T06:37:36.094Z,16.20
2023-11-22T06:40:03.692Z,14.20
2023-11-22T06:42:31.199Z,15.10
2023-11-22T06:45:01.636Z,16.00
2023-11-22T06:47:29.385Z,13.90
2023-11-22T06:49:56.929Z,8.50
2023-11-22T06:52:24.485Z,19.30
2023-11-22T06:54:52.241Z,28.30
2023-11-22T06:57:19.703Z,20.50
2023-11-22T06:59:47.265Z,13.40
2023-11-22T07:02:16.570Z,11.50
2023-11-22T07:04:44.268Z,15.60
2023-11-22T07:07:12.249Z,18.60
2023-11-22T07:09:43.510Z,14.70
2023-11-22T07:12:11.456Z,12.80
2023-11-22T07:14:39.272Z,13.50
2023-11-22T07:17:08.241Z,13.30
2023-11-22T07:19:39.346Z,10.00
2023-11-22T07:22:17.329Z,18.60
2023-11-22T07:24:45.172Z,14.10
2023-11-22T07:27:13.333Z,30.20
2023-11-22T07:29:44.531Z,31.80
2023-11-22T07:32:12.199Z,33.00
2023-11-22T07:34:41.025Z,20.00
2023-11-22T07:37:08.977Z,24.70
2023-11-22T07:39:37.056Z,18.70
2023-11-22T07:42:04.893Z,19.80
2023-11-22T07:44:33.955Z,13.10
2023-11-22T07:47:01.650Z,16.30
2023-11-22T07:49:30.126Z,15.00
2023-11-22T07:51:57.661Z,17.80
2023-11-22T07:54:25.171Z,22.50
2023-11-22T07:56:56.238Z,30.90
2023-11-22T07:59:23.837Z,24.70
2023-11-22T08:01:52.110Z,21.60
2023-11-22T08:04:19.666Z,28.00
2023-11-22T08:06:47.172Z,23.90
2023-11-22T08:09:17.808Z,34.50
2023-11-22T08:11:45.941Z,24.20
2023-11-22T08:14:15.463Z,18.90
2023-11-22T08:16:44.331Z,12.20
2023-11-22T08:19:13.153Z,16.70
2023-11-22T08:21:40.726Z,15.70
2023-11-22T08:24:08.631Z,15.70
2023-11-22T08:26:36.556Z,12.60
2023-11-22T08:29:04.322Z,10.90
2023-11-22T08:31:31.886Z,15.60
2023-11-22T08:33:59.414Z,15.30
2023-11-22T08:36:29.380Z,23.70
2023-11-22T08:38:57.788Z,28.70
2023-11-22T08:41:25.348Z,41.50
2023-11-22T08:43:52.968Z,46.30
2023-11-22T08:46:20.544Z,26.80
2023-11-22T08:48:48.079Z,22.30
2023-11-22T08:51:16.376Z,16.20
2023-11-22T08:53:45.922Z,28.80
2023-11-22T08:56:13.652Z,25.00
2023-11-22T08:58:41.379Z,30.70
2023-11-22T09:01:09.034Z,29.80
2023-11-22T09:03:36.890Z,20.30
2023-11-22T09:06:04.601Z,33.50
2023-11-22T09:08:32.204Z,33.80
2023-11-22T09:10:59.735Z,27.90
2023-11-22T09:13:27.235Z,22.40
2023-11-22T09:15:54.720Z,20.70
2023-11-22T09:18:23.276Z,23.30
2023-11-22T09:23:18.398Z,21.10
2023-11-22T09:25:46.843Z,17.90
2023-11-22T09:28:17.248Z,16.50
2023-11-22T09:30:46.495Z,15.00
2023-11-22T09:33:19.436Z,14.10
2023-11-22T09:35:48.568Z,12.00
2023-11-22T09:38:17.320Z,11.10
2023-11-22T09:40:46.679Z,13.50
2023-11-22T09:43:19.949Z,15.10
2023-11-22T09:45:55.627Z,9.80
2023-11-22T09:48:26.673Z,8.70
2023-11-22T09:51:00.430Z,8.20
2023-11-22T09:53:35.711Z,9.50
2023-11-22T09:56:04.693Z,9.00
2023-11-22T09:58:35.149Z,13.20
2023-11-22T10:01:02.843Z,16.50
2023-11-22T10:03:30.818Z,20.90
2023-11-22T10:06:00.026Z,11.70
2023-11-22T10:08:28.577Z,18.90
2023-11-22T10:13:24.129Z,17.80
2023-11-22T10:15:52.336Z,14.70
2023-11-22T10:18:20.882Z,21.10
2023-11-22T10:20:50.475Z,14.20
2023-11-22T10:23:19.204Z,13.60
2023-11-22T10:25:50.837Z,13.60
2023-11-22T10:28:21.631Z,16.00
2023-11-22T10:30:51.036Z,11.60
2023-11-22T10:33:20.842Z,14.70
2023-11-22T10:35:52.414Z,12.80
2023-11-22T10:38:20.131Z,15.10
2023-11-22T10:40:49.134Z,12.70
2023-11-22T10:43:17.023Z,10.80
2023-11-22T10:45:52.488Z,15.70
2023-11-22T10:48:22.277Z,18.10
2023-11-22T10:50:50.145Z,14.90
2023-11-22T10:53:19.362Z,20.50
2023-11-22T10:55:50.495Z,24.50
2023-11-22T10:58:18.607Z,17.00
2023-11-22T11:00:46.178Z,19.30
2023-11-22T11:03:16.013Z,16.90
2023-11-22T11:05:48.285Z,25.80
2023-11-22T11:08:17.498Z,23.00
2023-11-22T11:10:45.913Z,28.50
2023-11-22T11:13:14.444Z,21.90
2023-11-22T11:15:44.462Z,18.00
2023-11-22T11:18:14.032Z,15.30
2023-11-22T11:20:59.329Z,24.00
2023-11-22T11:23:27.898Z,17.10
2023-11-22T11:28:29.666Z,20.50
2023-11-22T11:30:57.839Z,19.10
2023-11-22T11:33:35.194Z,18.50
2023-11-22T11:36:05.050Z,12.80
2023-11-22T11:38:34.524Z,23.90
2023-11-22T11:41:12.185Z,22.00
2023-11-22T11:43:49.258Z,23.60
2023-11-22T11:46:17.273Z,16.70
2023-11-22T11:48:52.115Z,20.80
2023-11-22T11:51:22.448Z,29.40
2023-11-22T11:53:50.394Z,27.60
2023-11-22T11:56:19.216Z,25.20
2023-11-22T11:58:53.571Z,21.80
2023-11-22T12:01:22.795Z,28.50
2023-11-22T12:03:51.560Z,27.30
2023-11-22T12:06:21.532Z,22.70
2023-11-22T12:08:49.649Z,20.30
2023-11-22T12:11:19.350Z,18.50
2023-11-22T12:13:51.571Z,19.90
2023-11-22T12:16:19.899Z,20.20
2023-11-22T12:21:19.164Z,37.80
2023-11-22T12:23:49.155Z,18.40
2023-11-22T12:26:19.161Z,24.30
2023-11-22T12:28:57.064Z,26.90
2023-11-22T12:31:36.769Z,27.80
2023-11-22T12:34:07.780Z,31.60
2023-11-22T12:36:37.647Z,27.30
2023-11-22T12:39:09.915Z,26.80
2023-11-22T12:41:38.537Z,26.90
2023-11-22T12:47:12.460Z,19.00
2023-11-22T12:49:51.090Z,18.60
2023-11-22T12:52:18.865Z,20.00
2023-11-22T12:54:49.088Z,27.70
2023-11-22T12:57:17.743Z,27.20
2023-11-22T12:59:46.495Z,21.10
2023-11-22T13:02:14.056Z,16.40
2023-11-22T13:04:41.763Z,15.50
2023-11-22T13:07:09.366Z,19.30
2023-11-22T13:09:36.978Z,15.20
2023-11-22T13:12:05.609Z,15.70
2023-11-22T13:17:08.333Z,14.20
2023-11-22T13:19:38.138Z,8.40
2023-11-22T13:22:06.839Z,14.50
2023-11-22T13:24:34.556Z,26.10
2023-11-22T13:27:02.185Z,24.70
2023-11-22T13:29:29.667Z,19.60
2023-11-22T13:31:57.193Z,11.10
2023-11-22T13:34:25.318Z,22.80
2023-11-22T13:36:52.791Z,24.10
2023-11-22T13:39:20.349Z,37.90
2023-11-22T13:41:48.424Z,28.00
2023-11-22T13:44:15.940Z,25.30
2023-11-22T13:46:43.476Z,28.80
2023-11-22T13:49:11.858Z,22.30
2023-11-22T13:51:39.356Z,20.30
2023-11-22T13:54:07.003Z,15.80
2023-11-22T13:56:34.561Z,17.40
2023-11-22T13:59:02.783Z,39.30
2023-11-22T14:01:30.368Z,48.40
2023-11-22T14:03:58.075Z,42.80
2023-11-22T14:06:25.672Z,37.10
2023-11-22T14:08:53.709Z,34.20
2023-11-22T14:11:22.114Z,23.40
2023-11-22T14:13:49.617Z,27.20
2023-11-22T14:16:17.417Z,29.50
2023-11-22T14:18:45.117Z,27.20
2023-11-22T14:21:12.626Z,23.70
2023-11-22T14:23:40.140Z,27.50
2023-11-22T14:26:08.076Z,13.20
2023-11-22T14:28:35.598Z,9.10
2023-11-22T14:31:04.708Z,12.50
2023-11-22T14:33:33.617Z,8.60
2023-11-22T14:36:01.280Z,7.80
2023-11-22T14:38:28.849Z,7.60
2023-11-22T14:40:57.699Z,9.00
2023-11-22T14:43:25.151Z,10.90
2023-11-22T14:45:53.905Z,9.10
2023-11-22T14:48:22.233Z,9.90
2023-11-22T14:50:49.865Z,12.10
2023-11-22T14:53:17.940Z,7.50
2023-11-22T14:55:45.486Z,8.80
2023-11-22T14:58:13.001Z,11.50
2023-11-22T15:00:40.570Z,10.90
2023-11-22T15:03:09.267Z,13.30
2023-11-22T15:05:37.168Z,14.80
2023-11-22T15:08:04.933Z,11.00
2023-11-22T15:10:32.514Z,15.60
2023-11-22T15:13:00.161Z,10.40
2023-11-22T15:15:27.786Z,15.40
2023-11-22T15:17:56.188Z,13.80
2023-11-22T15:20:24.217Z,11.10
2023-11-22T15:22:52.189Z,10.20
2023-11-22T15:25:20.070Z,12.50
2023-11-22T15:27:47.623Z,10.20
2023-11-22T15:30:17.501Z,12.50
2023-11-22T15:32:45.031Z,15.00
2023-11-22T15:35:12.964Z,18.50
2023-11-22T15:37:40.803Z,19.20
2023-11-22T15:40:11.765Z,10.60
2023-11-22T15:42:39.674Z,12.50
2023-11-22T15:45:08.356Z,13.10
2023-11-22T15:47:38.456Z,11.70
2023-11-22T15:50:08.424Z,13.70
2023-11-22T15:52:35.919Z,12.30
2023-11-22T15:55:04.870Z,12.80
2023-11-22T15:57:32.369Z,13.90
2023-11-22T15:59:59.980Z,11.00
2023-11-22T16:02:28.910Z,12.90
2023-11-22T16:04:56.565Z,14.90
2023-11-22T16:07:24.553Z,12.00
2023-11-22T16:09:52.652Z,9.90
2023-11-22T16:12:20.588Z,11.10
2023-11-22T16:14:48.734Z,13.70
2023-11-22T16:17:22.621Z,15.50
2023-11-22T16:19:50.438Z,10.30
2023-11-22T16:22:18.017Z,12.60
2023-11-22T16:24:47.039Z,15.70
2023-11-22T16:27:14.515Z,12.10
2023-11-22T16:29:42.059Z,13.50
2023-11-22T16:32:09.566Z,16.80
2023-11-22T16:34:37.149Z,17.10
2023-11-22T16:37:04.784Z,16.90
2023-11-22T16:39:33.442Z,19.60
2023-11-22T16:42:01.087Z,18.00
2023-11-22T16:44:29.732Z,18.60
2023-11-22T16:46:57.981Z,15.30
2023-11-22T16:49:25.580Z,17.40
2023-11-22T16:51:53.114Z,13.30
2023-11-22T16:54:21.591Z,17.10
2023-11-22T16:56:50.052Z,17.10
2023-11-22T16:59:18.321Z,14.10
2023-11-22T17:01:46.028Z,10.40
2023-11-22T17:04:13.577Z,11.20
2023-11-22T17:06:41.157Z,11.50
2023-11-22T17:09:09.745Z,10.80
2023-11-22T17:14:06.616Z,14.00
2023-11-22T17:16:34.206Z,12.50
2023-11-22T17:19:01.704Z,11.70
2023-11-22T17:21:29.422Z,12.50
2023-11-22T17:23:57.066Z,21.20
2023-11-22T17:26:24.726Z,15.70
2023-11-22T17:28:52.345Z,15.30
2023-11-22T17:31:20.320Z,9.90
2023-11-22T17:33:47.955Z,11.20
2023-11-22T17:36:15.807Z,13.00
2023-11-22T17:38:43.323Z,11.70
2023-11-22T17:41:11.384Z,9.50
2023-11-22T17:43:38.915Z,10.60
2023-11-22T17:46:09.218Z,11.50
2023-11-22T17:48:37.504Z,12.90
2023-11-22T17:51:05.201Z,12.40
2023-11-22T17:53:33.040Z,8.20
2023-11-22T17:56:00.917Z,9.70
2023-11-22T17:58:28.984Z,8.40
2023-11-22T18:00:56.664Z,8.00
2023-11-22T18:03:24.558Z,13.50
2023-11-22T18:05:52.246Z,9.80
2023-11-22T18:08:21.186Z,8.50
2023-11-22T18:10:50.720Z,7.70
2023-11-22T18:13:18.337Z,7.70
2023-11-22T18:15:45.896Z,9.20
2023-11-22T18:18:13.706Z,7.90
2023-11-22T18:20:42.234Z,10.20
2023-11-22T18:23:10.202Z,12.20
2023-11-22T18:25:37.812Z,14.10
2023-11-22T18:28:07.142Z,7.70
2023-11-22T18:30:34.729Z,8.90
2023-11-22T18:33:02.320Z,10.40
2023-11-22T18:35:29.936Z,10.60
2023-11-22T18:37:57.491Z,13.20
2023-11-22T18:40:25.720Z,9.50
2023-11-22T18:42:53.688Z,12.40
2023-11-22T18:45:21.201Z,11.60
2023-11-22T18:47:50.260Z,15.00
2023-11-22T18:50:18.368Z,12.30
2023-11-22T18:52:45.947Z,12.80
2023-11-22T18:55:13.527Z,11.10
2023-11-22T18:57:44.616Z,13.20
2023-11-22T19:00:12.794Z,15.70
2023-11-22T19:02:41.206Z,20.90
2023-11-22T19:05:09.043Z,10.20
2023-11-22T19:07:36.590Z,12.70
2023-11-22T19:10:04.341Z,16.50
2023-11-22T19:12:32.004Z,19.50
2023-11-22T19:14:59.683Z,18.10
2023-11-22T19:17:27.390Z,13.20
2023-11-22T19:19:55.009Z,10.90
2023-11-22T19:22:22.584Z,13.20
2023-11-22T19:24:50.336Z,10.80
2023-11-22T19:27:17.946Z,14.20
2023-11-22T19:29:46.685Z,17.60
2023-11-22T19:32:19.009Z,37.50
2023-11-22T19:34:46.610Z,15.10
2023-11-22T19:37:14.086Z,11.70
2023-11-22T19:39:42.609Z,13.60
2023-11-22T19:42:10.156Z,17.80
2023-11-22T19:44:37.843Z,12.70
2023-11-22T19:47:05.645Z,11.20
2023-11-22T19:49:33.261Z,10.60
2023-11-22T19:52:01.852Z,17.80
2023-11-22T19:56:57.633Z,62.00
2023-11-22T19:59:25.277Z,45.20
2023-11-22T20:01:52.938Z,16.30
2023-11-22T20:04:20.441Z,10.80
2023-11-22T20:06:48.524Z,17.40
2023-11-22T20:09:16.084Z,15.80
2023-11-22T20:11:43.754Z,18.00
2023-11-22T20:14:11.459Z,57.40
2023-11-22T20:16:39.047Z,35.40
2023-11-22T20:19:06.610Z,21.20
2023-11-22T20:21:34.122Z,21.80
2023-11-22T20:24:01.642Z,14.40
2023-11-22T20:26:29.247Z,9.70
2023-11-22T20:28:58.034Z,13.70
2023-11-22T20:31:25.676Z,15.00
2023-11-22T20:33:53.418Z,13.60
2023-11-22T20:36:21.086Z,27.10
2023-11-22T20:38:50.979Z,32.10
2023-11-22T20:41:22.590Z,13.00
2023-11-22T20:43:50.247Z,13.10
2023-11-22T20:46:17.774Z,11.30
2023-11-22T20:48:45.683Z,10.30
2023-11-22T20:51:13.309Z,25.30
2023-11-22T20:53:40.867Z,13.30
2023-11-22T20:56:08.488Z,25.60
2023-11-22T20:58:36.157Z,23.10
2023-11-22T21:01:03.643Z,49.20
2023-11-22T21:03:31.566Z,57.80
2023-11-22T21:06:00.214Z,25.50
2023-11-22T21:08:27.843Z,11.40
2023-11-22T21:10:55.796Z,12.20
2023-11-22T21:13:23.336Z,18.70
2023-11-22T21:15:51.749Z,11.00
2023-11-22T21:18:19.331Z,15.70
2023-11-22T21:20:49.049Z,10.20
2023-11-22T21:23:16.537Z,40.20
2023-11-22T21:25:45.518Z,20.30
2023-11-22T21:28:13.086Z,21.00
2023-11-22T21:30:40.705Z,19.30
2023-11-22T21:33:08.245Z,10.90
2023-11-22T21:35:35.844Z,20.90
2023-11-22T21:38:03.581Z,14.20
2023-11-22T21:40:31.011Z,31.30
2023-11-22T21:42:58.678Z,19.60
2023-11-22T21:45:26.135Z,18.60
2023-11-22T21:47:53.751Z,13.00
2023-11-22T21:50:21.314Z,10.30
2023-11-22T21:52:48.760Z,12.80
2023-11-22T21:55:16.305Z,12.40
2023-11-22T21:57:45.020Z,11.80
2023-11-22T22:00:15.812Z,9.80
2023-11-22T22:02:44.026Z,13.70
2023-11-22T22:05:11.577Z,22.70
2023-11-22T22:07:39.210Z,13.60
2023-11-22T22:10:07.681Z,20.00
2023-11-22T22:12:35.232Z,21.20
2023-11-22T22:15:03.208Z,17.90
2023-11-22T22:17:30.705Z,14.00
2023-11-22T22:19:59.133Z,9.00
2023-11-22T22:22:28.519Z,9.00
2023-11-22T22:24:56.040Z,12.10
2023-11-22T22:27:23.607Z,15.80
2023-11-22T22:29:51.232Z,15.40
2023-11-22T22:32:18.812Z,22.30
2023-11-22T22:34:46.350Z,10.60
2023-11-22T22:37:13.832Z,11.50
2023-11-22T22:39:41.380Z,16.30
2023-11-22T22:42:08.998Z,15.90
2023-11-22T22:44:36.921Z,30.20
2023-11-22T22:47:04.481Z,18.40
2023-11-22T22:49:32.225Z,8.20
2023-11-22T22:52:08.159Z,10.60
2023-11-22T22:54:38.973Z,11.40
2023-11-22T22:57:06.775Z,14.60
2023-11-22T22:59:34.761Z,16.40
2023-11-22T23:02:02.838Z,17.60
2023-11-22T23:04:30.734Z,19.70
2023-11-22T23:06:58.250Z,15.50
2023-11-22T23:09:26.963Z,20.60
2023-11-22T23:14:22.065Z,12.40
2023-11-22T23:16:49.612Z,13.10
2023-11-22T23:19:17.285Z,23.10
2023-11-22T23:21:48.400Z,18.40
2023-11-22T23:24:15.968Z,17.40
2023-11-22T23:26:43.910Z,19.90
2023-11-22T23:29:12.962Z,17.30
2023-11-22T23:31:42.560Z,40.70
2023-11-22T23:34:10.080Z,15.70
2023-11-22T23:36:41.578Z,10.50
2023-11-22T23:39:11.768Z,12.80
2023-11-22T23:41:39.413Z,14.10
2023-11-22T23:44:07.251Z,25.00
2023-11-22T23:46:38.781Z,21.50
2023-11-22T23:49:08.206Z,38.30
2023-11-22T23:51:35.850Z,99.80
2023-11-22T23:54:03.480Z,27.40
2023-11-22T23:56:30.957Z,16.20
2023-11-22T23:58:58.397Z,21.40
